Detalii statie TOMOIOAGA GABRIEL [00001D05]

Toti senzorii

Date Temperatura solului [C]Precipitatii [mm]Voltaj baterie [mV]Leaf Wetness [Min]HC Air temperature [C]HC Relative humidity [%]Punctul de roua [C]
medieminmaxsumaultimatimpmedieminmaxmediemediemin
2018-08-12 11:00:00 0 7382 33.1 31.96 34.57 0 0 0
2018-08-12 12:00:00 0 7382 33.5 32.7 34.42 0 0 0
2018-08-12 13:00:00 0 7372 34.69 33.97 35.28 0 0 0
2018-08-12 14:00:00 0 7372 34.38 33 35.49 0 0 0
2018-08-12 15:00:00 0 7372 34.26 33.23 35.6 0 0 0
2018-08-12 16:00:00 0 7382 33.65 32.78 34.52 0 0 0
2018-08-12 17:00:00 0 7382 33.57 32.67 33.87 0 0 0
2018-08-12 18:00:00 0 7372 32.76 31.98 33.4 0 0 0
2018-08-12 19:00:00 0 7070 31.14 30.57 31.59 0 0 0
2018-08-12 20:00:00 0 6942 26.91 24.6 29.8 0 0 0
2018-08-12 21:00:00 0 6864 23.54 22.44 24.59 0 0 0
2018-08-12 22:00:00 0 6854 21.88 21.19 22.49 0 0 0
2018-08-12 23:00:00 0 6844 21.27 21.07 21.61 0 0 0
2018-08-13 00:00:00 0 6844 20.86 20.48 21.1 0 0 0
2018-08-13 01:00:00 0 6844 20.51 19.94 21.03 0 0 0
2018-08-13 02:00:00 0 6844 20.02 19.93 20.12 0 0 0
2018-08-13 03:00:00 0 6834 19.61 19.3 19.97 0 0 0
2018-08-13 04:00:00 0 6834 18.82 18.57 19.35 0 0 0
2018-08-13 05:00:00 0 6826 18.2 17.9 18.52 0 0 0
2018-08-13 06:00:00 0 6816 17.99 17.9 18.12 0 0 0
2018-08-13 07:00:00 0 6854 19.19 18.21 20.6 0 0 0
2018-08-13 08:00:00 0 6884 23.02 21.23 24.41 0 0 0
2018-08-13 09:00:00 0 7000 26.19 24.8 27.8 0 0 0
2018-08-13 10:00:00 0 7246 30.22 28.31 31.55 0 0 0
2018-08-13 11:00:00 0 7372 33.1 31.67 34.17 0 0 0
2018-08-13 12:00:00 0 7372 34.71 33.76 35.29 0 0 0
2018-08-13 13:00:00 0 7372 34.5 33.75 35.48 0 0 0
2018-08-13 14:00:00 0 7372 34.89 34.12 35.65 0 0 0
2018-08-13 15:00:00 0 7382 34.28 33.46 35.03 0 0 0
2018-08-13 16:00:00 0 7372 34.1 32.93 35.11 0 0 0
2018-08-13 17:00:00 0 7382 33.07 32.07 34.34 0 0 0
2018-08-13 18:00:00 0 7274 31.3 30.56 31.89 0 0 0
2018-08-13 19:00:00 0 7070 29.49 28.06 30.46 0 0 0
2018-08-13 20:00:00 0 6952 25.88 24.32 27.76 0 0 0
2018-08-13 21:00:00 0 6874 23.25 22.21 24.14 0 0 0
2018-08-13 22:00:00 0 6844 21.5 20.29 22.28 0 0 0
2018-08-13 23:00:00 0 6844 20.56 20.38 20.74 0 0 0
2018-08-14 00:00:00 0 6844 20.08 19.69 20.65 0 0 0
2018-08-14 01:00:00 0 6834 19.4 19.21 19.62 0 0 0
2018-08-14 02:00:00 0 6844 19.94 19.81 20.07 0 0 0
2018-08-14 03:00:00 0 6844 19.74 19.68 19.82 0 0 0
2018-08-14 04:00:00 0 6834 19.63 19.52 19.72 0 0 0
2018-08-14 05:00:00 0 6834 19.52 19.3 19.77 0 0 0
2018-08-14 06:00:00 0 6826 19.28 18.88 19.55 0 0 0
2018-08-14 07:00:00 0 6864 20.21 19.29 21.19 0 0 0
2018-08-14 08:00:00 0 6922 22.98 21.77 24.24 0 0 0
2018-08-14 09:00:00 0 7050 25.88 23.07 27.13 0 0 0
2018-08-14 10:00:00 0 7314 29.78 27.82 31.77 0 0 0